Time;durP1;ratioP1;P1;durP2;ratioP2;P2;SDS_P1;SDS_P2;PMS_P1;PMS_P2;Temp;Humidity;BMP_temperature;BMP_pressure;BME280_temperature;BME280_humidity;BME280_pressure;Samples;Min_cycle;Max_cycle;Signal;HPM_P1;HPM_P2
2022/05/02 00:02:20;;;;;;;3.25;2.17;;;22.10;99.90;;;;;;1827017;77;21167;-79
2022/05/02 00:04:51;;;;;;;5.60;2.37;;;22.00;99.90;;;;;;1804220;77;21110;-79
2022/05/02 00:07:22;;;;;;;4.33;2.05;;;22.10;99.90;;;;;;1822208;77;21114;-79
2022/05/02 00:09:53;;;;;;;5.53;1.80;;;22.10;99.90;;;;;;1814288;77;21185;-79
2022/05/02 00:12:25;;;;;;;4.70;2.27;;;22.10;99.90;;;;;;1768307;79;21573;-79
2022/05/02 00:14:56;;;;;;;4.25;2.17;;;22.10;99.90;;;;;;1798128;78;21133;-80
2022/05/02 00:19:59;;;;;;;5.12;2.42;;;22.00;99.90;;;;;;1802226;76;21272;-79
2022/05/02 00:22:30;;;;;;;4.30;2.58;;;22.00;99.90;;;;;;1814169;77;21616;-79
2022/05/02 00:25:01;;;;;;;4.92;2.25;;;21.90;99.90;;;;;;1816654;77;21157;-79
2022/05/02 00:27:33;;;;;;;4.58;2.00;;;21.90;99.90;;;;;;1788691;78;21231;-79
2022/05/02 00:30:05;;;;;;;4.05;2.85;;;21.90;99.90;;;;;;1803469;78;21599;-79
2022/05/02 00:32:36;;;;;;;5.22;2.90;;;21.90;99.90;;;;;;1815534;77;21229;-80
2022/05/02 00:35:10;;;;;;;7.92;4.53;;;21.90;99.90;;;;;;1827031;76;21172;-80
2022/05/02 00:37:42;;;;;;;6.60;4.60;;;21.90;99.90;;;;;;1830359;76;21119;-79
2022/05/02 00:40:16;;;;;;;8.33;4.10;;;21.90;99.90;;;;;;1818877;77;21261;-79
2022/05/02 00:42:48;;;;;;;6.75;4.05;;;21.90;99.90;;;;;;1816772;77;21991;-78
2022/05/02 00:45:21;;;;;;;5.30;3.80;;;21.90;99.90;;;;;;1826410;77;21196;-79
2022/05/02 00:47:54;;;;;;;4.33;3.35;;;21.90;99.90;;;;;;1814316;77;21299;-80
2022/05/02 00:50:27;;;;;;;4.97;2.83;;;22.00;99.90;;;;;;1791345;78;21087;-80
2022/05/02 00:52:58;;;;;;;5.47;2.52;;;21.90;99.90;;;;;;1800970;76;21151;-79
2022/05/02 00:55:30;;;;;;;7.72;2.58;;;21.90;99.90;;;;;;1781863;77;21845;-78
2022/05/02 00:58:06;;;;;;;3.70;2.72;;;21.80;99.90;;;;;;1822973;77;21082;-78
2022/05/02 01:00:39;;;;;;;4.92;2.65;;;21.80;99.90;;;;;;1803303;77;21170;-79
2022/05/02 01:03:12;;;;;;;3.58;2.30;;;21.80;99.90;;;;;;1785910;78;21249;-80
2022/05/02 01:08:18;;;;;;;4.40;2.47;;;21.90;99.90;;;;;;1806151;77;21237;-79
2022/05/02 01:10:50;;;;;;;3.00;2.27;;;21.80;99.90;;;;;;1790796;77;21178;-78
2022/05/02 01:13:26;;;;;;;4.75;2.77;;;21.80;99.90;;;;;;1767359;78;21225;-79
2022/05/02 01:15:57;;;;;;;3.47;2.42;;;21.80;99.90;;;;;;1771409;80;21166;-79
2022/05/02 01:18:28;;;;;;;3.27;2.12;;;21.80;99.90;;;;;;1811389;76;21221;-79
2022/05/02 01:20:59;;;;;;;2.98;2.05;;;21.90;99.90;;;;;;1787131;77;21505;-80
2022/05/02 01:23:30;;;;;;;3.35;2.20;;;21.80;99.90;;;;;;1803538;78;21142;-79
2022/05/02 01:26:01;;;;;;;5.87;2.17;;;21.80;99.90;;;;;;1796384;77;21177;-80
2022/05/02 01:28:32;;;;;;;3.00;1.92;;;21.80;99.90;;;;;;1813185;77;21239;-80
2022/05/02 01:31:02;;;;;;;4.40;2.20;;;21.80;99.90;;;;;;1766451;79;21163;-79
2022/05/02 01:33:35;;;;;;;4.22;2.42;;;21.90;99.90;;;;;;1842824;75;21209;-81
2022/05/02 01:36:07;;;;;;;3.20;2.02;;;21.80;99.90;;;;;;1828982;76;21155;-79
2022/05/02 01:38:38;;;;;;;2.80;1.87;;;21.90;99.90;;;;;;1793171;78;21150;-79
2022/05/02 01:41:10;;;;;;;5.20;2.50;;;21.80;99.90;;;;;;1788351;78;21280;-79
2022/05/02 01:43:42;;;;;;;4.37;2.67;;;21.80;99.90;;;;;;1796383;78;21694;-80
2022/05/02 01:46:14;;;;;;;3.75;2.17;;;21.80;99.90;;;;;;1806500;78;21247;-79
2022/05/02 01:48:45;;;;;;;4.45;2.95;;;21.70;99.90;;;;;;1823491;77;21265;-80
2022/05/02 01:51:16;;;;;;;4.05;2.45;;;21.70;99.90;;;;;;1841190;76;21104;-80
2022/05/02 01:53:47;;;;;;;5.35;2.75;;;21.80;99.90;;;;;;1829282;77;21169;-80
2022/05/02 01:56:18;;;;;;;5.20;2.98;;;21.80;99.90;;;;;;1824120;77;21694;-80
2022/05/02 01:58:49;;;;;;;5.45;2.85;;;21.80;99.90;;;;;;1793326;77;21157;-80
2022/05/02 02:01:20;;;;;;;4.35;2.95;;;21.70;99.90;;;;;;1787915;78;21251;-79
2022/05/02 02:03:51;;;;;;;5.00;2.98;;;21.80;99.90;;;;;;1800801;77;21216;-80
2022/05/02 02:06:24;;;;;;;4.55;3.05;;;21.80;99.90;;;;;;1792046;78;21298;-81
2022/05/02 02:08:55;;;;;;;3.90;2.90;;;21.70;99.90;;;;;;1788295;78;21688;-81
2022/05/02 02:11:26;;;;;;;4.95;3.10;;;21.50;99.90;;;;;;1807612;77;21205;-80
2022/05/02 02:13:57;;;;;;;7.22;2.92;;;21.70;99.90;;;;;;1785378;78;21220;-80
2022/05/02 02:16:28;;;;;;;5.03;2.42;;;21.70;99.90;;;;;;1837201;75;21190;-80
2022/05/02 02:18:59;;;;;;;12.93;3.95;;;21.60;99.90;;;;;;1818815;77;21637;-80
2022/05/02 02:21:31;;;;;;;6.87;4.58;;;21.50;99.90;;;;;;1811540;77;21199;-80
2022/05/02 02:24:04;;;;;;;4.85;2.77;;;21.60;99.90;;;;;;1774325;79;21168;-79
2022/05/02 02:26:35;;;;;;;4.90;3.52;;;21.50;99.90;;;;;;1786935;76;21188;-80
2022/05/02 02:29:06;;;;;;;4.62;3.37;;;21.50;99.90;;;;;;1799012;76;21093;-80
2022/05/02 02:31:37;;;;;;;5.10;3.30;;;21.40;99.90;;;;;;1815094;75;21243;-80
2022/05/02 02:34:08;;;;;;;7.83;4.17;;;21.40;99.90;;;;;;1799388;77;21289;-81
2022/05/02 02:36:39;;;;;;;6.42;3.47;;;21.50;99.90;;;;;;1806476;76;21742;-80
2022/05/02 02:39:09;;;;;;;7.05;3.60;;;;;;;;;;1839733;74;21200;-81
2022/05/02 02:41:42;;;;;;;6.85;3.45;;;;;;;;;;1813296;75;21794;-80
2022/05/02 02:44:15;;;;;;;4.47;2.80;;;;;;;;;;1806727;77;21232;-80
2022/05/02 02:46:46;;;;;;;5.05;3.45;;;;;;;;;;1812471;75;21241;-77
2022/05/02 02:49:19;;;;;;;5.08;3.35;;;;;;;;;;1808468;75;21241;-79
2022/05/02 02:51:53;;;;;;;5.05;3.42;;;;;;;;;;1809372;76;21333;-78
2022/05/02 02:54:26;;;;;;;9.10;3.60;;;;;;;;;;1821466;75;21145;-79
2022/05/02 02:56:59;;;;;;;4.78;3.62;;;;;;;;;;1815483;76;21211;-79
2022/05/02 02:59:32;;;;;;;5.42;3.60;;;;;;;;;;1804484;76;21690;-79
2022/05/02 03:02:06;;;;;;;5.30;3.37;;;;;;;;;;1806678;77;21194;-79
2022/05/02 03:07:15;;;;;;;8.03;3.62;;;;;;;;;;1805901;76;21932;-79
2022/05/02 03:09:49;;;;;;;5.80;3.70;;;;;;;;;;1797019;76;21173;-80
2022/05/02 03:12:22;;;;;;;5.60;3.80;;;;;;;;;;1794671;76;21236;-79
2022/05/02 03:14:55;;;;;;;5.37;3.98;;;;;;;;;;1801122;76;21136;-79
2022/05/02 03:17:28;;;;;;;5.67;4.50;;;;;;;;;;1801432;75;21194;-79
2022/05/02 03:20:00;;;;;;;6.17;4.30;;;;;;;;;;1782699;78;21321;-79
2022/05/02 03:22:34;;;;;;;6.30;4.28;;;;;;;;;;1811882;77;21147;-80
2022/05/02 03:25:08;;;;;;;6.10;4.42;;;;;;;;;;1833630;76;21182;-79
2022/05/02 03:27:43;;;;;;;6.45;3.92;;;;;;;;;;1801747;76;21612;-80
2022/05/02 03:30:17;;;;;;;5.35;3.83;;;;;;;;;;1787958;76;21232;-79
2022/05/02 03:32:52;;;;;;;4.78;4.00;;;;;;;;;;1815551;77;21241;-81
2022/05/02 03:35:27;;;;;;;7.90;4.30;;;;;;;;;;1799966;78;21755;-80
2022/05/02 03:38:01;;;;;;;5.95;4.35;;;;;;;;;;1800218;78;21165;-81
2022/05/02 03:40:34;;;;;;;6.55;4.53;;;;;;;;;;1788713;78;21182;-80
2022/05/02 03:43:10;;;;;;;6.42;4.22;;;;;;;;;;1820413;77;21098;-81
2022/05/02 03:45:42;;;;;;;4.72;3.70;;;;;;;;;;1832370;76;21219;-80
2022/05/02 03:48:15;;;;;;;8.05;3.90;;;;;;;;;;1790191;78;21272;-80
2022/05/02 03:50:48;;;;;;;5.62;4.22;;;;;;;;;;1787378;78;21198;-81
2022/05/02 03:53:20;;;;;;;6.17;3.60;;;;;;;;;;1805994;76;21264;-80
2022/05/02 03:55:54;;;;;;;7.25;4.10;;;;;;;;;;1810681;75;21278;-81
2022/05/02 03:58:30;;;;;;;6.97;4.53;;;;;;;;;;1812750;75;21256;-80
2022/05/02 04:01:04;;;;;;;6.97;4.60;;;;;;;;;;1819415;77;21232;-81
2022/05/02 04:03:39;;;;;;;6.62;4.28;;;;;;;;;;1841031;75;21750;-81
2022/05/02 04:06:13;;;;;;;7.28;4.83;;;;;;;;;;1817481;76;21258;-81
2022/05/02 04:08:47;;;;;;;6.03;4.87;;;;;;;;;;1815047;76;21274;-78
2022/05/02 04:11:24;;;;;;;9.43;4.37;;;;;;;;;;1811364;76;21240;-79
2022/05/02 04:13:59;;;;;;;5.92;4.22;;;;;;;;;;1820607;74;21074;-79
2022/05/02 04:16:33;;;;;;;7.28;4.08;;;;;;;;;;1808339;77;21224;-81
2022/05/02 04:19:07;;;;;;;5.58;4.10;;;;;;;;;;1820312;76;21633;-80
2022/05/02 04:21:40;;;;;;;9.10;4.58;;;;;;;;;;1810510;77;21588;-80
2022/05/02 04:24:14;;;;;;;6.83;4.62;;;;;;;;;;1845880;75;21116;-82
2022/05/02 04:26:47;;;;;;;8.65;4.05;;;;;;;;;;1800192;77;21245;-81
2022/05/02 04:29:18;;;;;;;7.05;4.25;;;;;;;;;;1815276;76;21195;-81
2022/05/02 04:31:49;;;;;;;4.97;3.92;;;;;;;;;;1803680;77;21083;-81
2022/05/02 04:34:20;;;;;;;5.42;3.70;;;;;;;;;;1824816;77;21656;-80
2022/05/02 04:36:53;;;;;;;6.53;3.67;;;;;;;;;;1814406;78;21151;-81
2022/05/02 04:39:24;;;;;;;5.45;3.90;;;;;;;;;;1826231;77;21292;-81
2022/05/02 04:41:55;;;;;;;8.03;4.22;;;;;;;;;;1819733;76;21142;-80
2022/05/02 04:44:27;;;;;;;5.95;3.70;;;;;;;;;;1806662;77;21704;-81
2022/05/02 04:46:58;;;;;;;5.42;4.10;;;;;;;;;;1816448;77;21145;-81
2022/05/02 04:49:30;;;;;;;7.20;3.95;;;;;;;;;;1812888;77;21221;-80
2022/05/02 04:52:07;;;;;;;7.05;4.08;;;;;;;;;;1773094;80;21170;-80
2022/05/02 04:54:41;;;;;;;5.42;4.12;;;;;;;;;;1804195;76;21537;-80
2022/05/02 04:57:17;;;;;;;5.20;3.87;;;;;;;;;;1834274;75;21649;-80
2022/05/02 04:59:48;;;;;;;8.08;4.45;;;;;;;;;;1842701;76;21146;-79
2022/05/02 05:02:19;;;;;;;6.03;4.05;;;;;;;;;;1807894;77;21264;-80
2022/05/02 05:04:50;;;;;;;5.58;3.98;;;;;;;;;;1817652;76;21618;-80
2022/05/02 05:07:20;;;;;;;4.72;3.67;;;;;;;;;;1827118;77;21189;-80
2022/05/02 05:09:51;;;;;;;7.67;3.77;;;;;;;;;;1806279;76;21235;-81
2022/05/02 05:12:21;;;;;;;5.58;4.28;;;;;;;;;;1813112;76;21248;-80
2022/05/02 05:17:27;;;;;;;5.03;3.50;;;;;;;;;;1801615;78;21172;-81
2022/05/02 05:19:58;;;;;;;5.87;4.17;;;;;;;;;;1798705;77;21204;-80
2022/05/02 05:22:30;;;;;;;5.37;3.58;;;;;;;;;;1812509;77;21119;-80
2022/05/02 05:25:01;;;;;;;5.25;3.00;;;;;;;;;;1809698;77;21265;-81
2022/05/02 05:27:34;;;;;;;5.30;2.77;;;;;;;;;;1825068;77;21230;-79
2022/05/02 05:30:04;;;;;;;4.08;3.12;;;;;;;;;;1835189;77;21216;-80
2022/05/02 05:32:34;;;;;;;4.85;3.30;;;;;;;;;;1837593;77;21150;-79
2022/05/02 05:35:07;;;;;;;3.85;2.77;;;;;;;;;;1830510;76;21182;-80
2022/05/02 05:37:38;;;;;;;4.30;3.27;;;;;;;;;;1813698;77;21605;-80
2022/05/02 05:40:10;;;;;;;4.67;3.00;;;;;;;;;;1830953;77;21238;-80
2022/05/02 05:42:47;;;;;;;5.67;2.80;;;22.10;99.90;;;;;;1808447;76;21157;-80
2022/05/02 05:45:25;;;;;;;4.03;2.70;;;22.10;99.90;;;;;;1797009;77;21143;-80
2022/05/02 05:48:07;;;;;;;3.52;2.50;;;22.20;99.90;;;;;;1825765;76;21161;-82
2022/05/02 05:50:40;;;;;;;4.72;2.67;;;22.30;99.90;;;;;;1796300;76;21800;-81
2022/05/02 05:53:12;;;;;;;4.33;2.50;;;;;;;;;;1777938;78;21171;-81
2022/05/02 05:55:43;;;;;;;3.87;2.47;;;;;;;;;;1783080;77;21201;-82
2022/05/02 05:58:17;;;;;;;3.42;2.25;;;;;;;;;;1800368;77;21114;-81
2022/05/02 06:00:49;;;;;;;4.22;2.65;;;;;;;;;;1794568;77;21176;-81
2022/05/02 06:03:22;;;;;;;4.40;2.65;;;;;;;;;;1767433;79;21712;-81
2022/05/02 06:05:54;;;;;;;5.55;2.75;;;;;;;;;;1788780;79;21241;-81
2022/05/02 06:08:26;;;;;;;5.60;3.55;;;;;;;;;;1812272;77;21745;-81
2022/05/02 06:11:01;;;;;;;5.22;2.92;;;;;;;;;;1792459;77;21311;-82
2022/05/02 06:13:31;;;;;;;5.22;3.05;;;;;;;;;;1786968;77;21578;-81
2022/05/02 06:18:45;;;;;;;6.10;3.70;;;;;;;;;;1802536;77;21176;-81
2022/05/02 06:21:17;;;;;;;4.75;3.37;;;;;;;;;;1826173;77;21214;-81
2022/05/02 06:23:52;;;;;;;5.10;3.50;;;;;;;;;;1795282;77;21211;-80
2022/05/02 06:26:26;;;;;;;6.50;3.55;;;;;;;;;;1785821;77;21176;-80
2022/05/02 06:29:02;;;;;;;7.15;3.75;;;;;;;;;;1808028;77;21635;-80
2022/05/02 06:31:51;;;;;;;7.65;4.10;;;;;;;;;;1782023;78;21291;-81
2022/05/02 06:34:13;;;;;;;10.45;7.85;;;;;;;;;;1790574;78;21174;-82
2022/05/02 06:36:47;;;;;;;5.40;3.87;;;;;;;;;;1817482;77;21294;-80
2022/05/02 06:39:23;;;;;;;7.03;3.90;;;;;;;;;;1805768;77;21177;-79
2022/05/02 06:42:01;;;;;;;6.78;3.98;;;;;;;;;;1792970;77;21146;-80
2022/05/02 06:44:36;;;;;;;5.37;3.45;;;;;;;;;;1788662;78;21677;-81
2022/05/02 06:47:12;;;;;;;8.25;4.25;;;;;;;;;;1813223;77;21158;-81
2022/05/02 06:50:01;;;;;;;9.23;4.40;;;;;;;;;;1805699;78;21608;-80
2022/05/02 06:52:28;;;;;;;9.28;3.37;;;;;;;;;;1806197;78;21117;-81
2022/05/02 06:55:02;;;;;;;5.12;2.70;;;;;;;;;;1800007;78;21168;-80
2022/05/02 06:57:44;;;;;;;4.58;3.08;;;;;;;;;;1807295;78;21208;-79
2022/05/02 07:00:17;;;;;;;5.05;3.02;;;;;;;;;;1778899;80;21252;-81
2022/05/02 07:02:57;;;;;;;6.17;2.95;;;;;;;;;;1778641;78;21772;-80
2022/05/02 07:05:29;;;;;;;6.92;3.20;;;;;;;;;;1794236;79;21255;-81
2022/05/02 07:08:05;;;;;;;3.52;2.60;;;;;;;;;;1803832;78;21182;-81
2022/05/02 07:10:41;;;;;;;6.33;2.83;;;;;;;;;;1793504;78;21752;-81
2022/05/02 07:13:15;;;;;;;7.55;3.75;;;;;;;;;;1809111;78;21240;-81
2022/05/02 07:15:48;;;;;;;4.60;2.55;;;;;;;;;;1792426;79;21283;-81
2022/05/02 07:18:19;;;;;;;5.33;3.08;;;;;;;;;;1851563;75;21225;-81
2022/05/02 07:20:52;;;;;;;6.87;3.20;;;;;;;;;;1846176;75;21094;-81
2022/05/02 07:23:25;;;;;;;5.67;3.55;;;;;;;;;;1842542;76;21256;-80
2022/05/02 07:25:58;;;;;;;5.97;3.55;;;;;;;;;;1844211;75;21200;-80
2022/05/02 07:28:31;;;;;;;6.85;3.75;;;;;;;;;;1842121;75;21670;-80
2022/05/02 07:31:02;;;;;;;5.50;3.30;;;;;;;;;;1824532;77;21221;-80
2022/05/02 07:33:35;;;;;;;4.08;3.20;;;;;;;;;;1840381;76;21234;-80
2022/05/02 07:36:09;;;;;;;4.97;3.72;;;;;;;;;;1786338;77;21174;-80
2022/05/02 07:38:41;;;;;;;6.37;3.75;;;;;;;;;;1828726;77;21163;-80
2022/05/02 07:41:23;;;;;;;4.42;3.10;;;;;;;;;;1768058;80;21190;-79
2022/05/02 07:43:48;;;;;;;6.17;3.30;;;;;;;;;;1826177;76;21305;-79
2022/05/02 07:46:20;;;;;;;3.25;2.70;;;;;;;;;;1785776;80;21308;-79
2022/05/02 07:49:00;;;;;;;5.87;2.80;;;;;;;;;;1786835;77;21162;-79
2022/05/02 07:51:29;;;;;;;4.17;2.58;;;;;;;;;;1792284;78;21219;-79
2022/05/02 07:54:01;;;;;;;4.33;2.80;;;;;;;;;;1826448;77;21116;-79
2022/05/02 07:56:36;;;;;;;5.03;2.58;;;;;;;;;;1826342;78;21167;-78
2022/05/02 07:59:11;;;;;;;6.50;3.30;;;;;;;;;;1807172;78;21159;-79
2022/05/02 08:02:06;;;;;;;5.92;2.90;;;;;;;;;;1812645;78;21822;-79
2022/05/02 08:04:37;;;;;;;4.47;3.20;;;;;;;;;;1798578;78;21669;-77
2022/05/02 08:07:09;;;;;;;4.50;2.92;;;;;;;;;;1797329;79;21170;-79
2022/05/02 08:09:41;;;;;;;5.65;3.45;;;;;;;;;;1810441;78;21111;-79
2022/05/02 08:12:12;;;;;;;6.28;3.80;;;;;;;;;;1821560;77;21163;-79
2022/05/02 08:14:45;;;;;;;6.83;3.60;;;;;;;;;;1818513;77;21155;-79
2022/05/02 08:17:18;;;;;;;6.55;3.55;;;;;;;;;;1798469;79;21250;-78
2022/05/02 08:19:50;;;;;;;4.85;3.50;;;;;;;;;;1801346;79;21165;-78
2022/05/02 08:27:31;;;;;;;5.95;4.35;;;;;;;;;;1825337;77;21155;-81
2022/05/02 08:30:04;;;;;;;4.53;3.58;;;;;;;;;;1810933;77;21274;-79
2022/05/02 08:32:35;;;;;;;5.83;3.55;;;;;;;;;;1796310;77;21204;-78
2022/05/02 08:35:08;;;;;;;4.42;3.20;;;;;;;;;;1809982;77;21152;-80
2022/05/02 08:37:42;;;;;;;4.05;3.12;;;;;;;;;;1806864;77;21153;-78
2022/05/02 08:40:17;;;;;;;4.37;3.00;;;;;;;;;;1806300;77;21167;-78
2022/05/02 08:42:50;;;;;;;4.83;3.10;;;;;;;;;;1819619;77;21167;-78
2022/05/02 08:45:29;;;;;;;4.17;2.90;;;;;;;;;;1803271;78;21180;-79
2022/05/02 08:48:00;;;;;;;5.33;3.67;;;;;;;;;;1809543;77;21228;-79
2022/05/02 08:50:34;;;;;;;5.37;3.55;;;;;;;;;;1803710;77;21155;-80
2022/05/02 08:53:09;;;;;;;5.35;3.72;;;;;;;;;;1810866;77;21176;-79
2022/05/02 08:55:44;;;;;;;5.28;3.20;;;;;;;;;;1803321;77;21275;-79
2022/05/02 08:58:17;;;;;;;5.10;3.55;;;;;;;;;;1800566;79;21129;-80
2022/05/02 09:00:53;;;;;;;5.28;3.20;;;;;;;;;;1833459;77;21126;-79
2022/05/02 09:03:26;;;;;;;7.45;3.40;;;;;;;;;;1790231;79;21197;-79
2022/05/02 09:06:06;;;;;;;5.42;3.27;;;;;;;;;;1806495;77;21301;-79
2022/05/02 09:08:42;;;;;;;5.03;3.10;;;;;;;;;;1809126;77;21682;-78
2022/05/02 09:11:31;;;;;;;3.95;2.95;;;;;;;;;;1798876;77;21206;-79
2022/05/02 09:13:57;;;;;;;4.53;3.42;;;;;;;;;;1816391;77;21170;-79
2022/05/02 09:16:34;;;;;;;5.35;3.90;;;;;;;;;;1812429;77;21216;-79
2022/05/02 09:19:11;;;;;;;5.37;3.55;;;;;;;;;;1801690;79;21236;-79
2022/05/02 09:21:46;;;;;;;4.80;3.65;;;;;;;;;;1793880;78;21217;-78
2022/05/02 09:24:23;;;;;;;5.17;3.50;;;;;;;;;;1798468;77;21164;-79
2022/05/02 09:26:59;;;;;;;4.12;3.30;;;;;;;;;;1823233;77;21218;-79
2022/05/02 09:29:35;;;;;;;4.05;3.15;;;;;;;;;;1812665;77;21267;-79
2022/05/02 09:32:09;;;;;;;4.80;3.33;;;;;;;;;;1795728;79;21240;-78
2022/05/02 09:34:44;;;;;;;8.33;3.60;;;;;;;;;;1816414;77;21160;-78
2022/05/02 09:37:19;;;;;;;7.95;4.15;;;;;;;;;;1837871;76;21141;-79
2022/05/02 09:39:54;;;;;;;4.97;3.37;;;;;;;;;;1808909;77;21133;-79
2022/05/02 09:42:28;;;;;;;6.65;3.90;;;;;;;;;;1819802;77;21186;-79
2022/05/02 09:50:14;;;;;;;6.92;3.85;;;;;;;;;;1832277;76;21211;-79
2022/05/02 09:52:49;;;;;;;8.00;4.08;;;;;;;;;;1802815;77;21200;-79
2022/05/02 09:58:03;;;;;;;6.03;3.83;;;;;;;;;;1829174;77;21158;-79
2022/05/02 10:03:14;;;;;;;7.37;4.13;;;;;;;;;;1843113;76;21148;-80
2022/05/02 10:05:49;;;;;;;5.70;4.00;;;;;;;;;;1774350;79;21147;-79
2022/05/02 10:08:26;;;;;;;5.35;3.62;;;;;;;;;;1813407;77;21117;-81
2022/05/02 10:11:03;;;;;;;5.45;3.30;;;;;;;;;;1815757;77;21741;-80
2022/05/02 10:13:37;;;;;;;5.75;3.27;;;;;;;;;;1809907;78;21165;-80
2022/05/02 10:16:13;;;;;;;5.33;3.50;;;;;;;;;;1804701;78;21857;-81
2022/05/02 10:18:48;;;;;;;6.05;3.17;;;;;;;;;;1811431;77;21117;-80
2022/05/02 10:21:23;;;;;;;7.25;3.58;;;;;;;;;;1809158;76;21219;-79
2022/05/02 10:23:58;;;;;;;6.22;3.35;;;;;;;;;;1803723;77;21119;-80
2022/05/02 10:26:32;;;;;;;6.22;3.65;;;;;;;;;;1820765;76;21251;-79
2022/05/02 10:29:07;;;;;;;5.58;3.92;;;;;;;;;;1790628;78;21162;-80
2022/05/02 10:31:42;;;;;;;7.47;2.70;;;;;;;;;;1787854;78;21189;-80
2022/05/02 10:34:17;;;;;;;5.17;2.95;;;;;;;;;;1826209;77;21084;-79
2022/05/02 10:36:51;;;;;;;5.65;3.20;;;;;;;;;;1793078;78;21229;-78
2022/05/02 10:39:26;;;;;;;3.60;2.65;;;;;;;;;;1844207;75;21173;-79
2022/05/02 10:42:00;;;;;;;5.25;3.20;;;;;;;;;;1849700;75;21221;-81
2022/05/02 10:44:34;;;;;;;5.58;2.80;;;;;;;;;;1801131;78;21223;-80
2022/05/02 10:47:12;;;;;;;4.35;2.87;;;;;;;;;;1774366;79;21189;-80
2022/05/02 10:49:45;;;;;;;6.28;3.05;;;;;;;;;;1784102;78;21227;-80
2022/05/02 10:52:21;;;;;;;3.30;2.10;;;;;;;;;;1828217;75;21279;-80
2022/05/02 10:54:59;;;;;;;3.08;1.95;;;;;;;;;;1795307;78;21146;-81
2022/05/02 10:57:33;;;;;;;4.60;2.50;;;;;;;;;;1810468;78;21174;-80
2022/05/02 11:00:09;;;;;;;4.08;2.35;;;;;;;;;;1799384;77;21288;-81
2022/05/02 11:02:46;;;;;;;4.25;2.52;;;;;;;;;;1786043;78;21111;-81
2022/05/02 11:05:20;;;;;;;;;;;;;;;;;;1777326;80;21532;-81
2022/05/02 11:07:57;;;;;;;3.35;2.33;;;;;;;;;;1843488;77;20114;-80
2022/05/02 11:10:38;;;;;;;9.68;2.65;;;;;;;;;;1792762;78;21174;-81
2022/05/02 11:13:20;;;;;;;4.97;3.25;;;;;;;;;;1777268;78;21150;-80
2022/05/02 11:15:55;;;;;;;13.80;6.83;;;;;;;;;;1779030;78;21086;-80
2022/05/02 11:21:05;;;;;;;6.03;3.60;;;;;;;;;;1798669;77;21169;-80
2022/05/02 11:23:40;;;;;;;6.42;3.42;;;;;;;;;;1795617;78;21089;-80
2022/05/02 11:26:13;;;;;;;5.80;3.33;;;;;;;;;;1793243;79;21134;-79
2022/05/02 11:28:48;;;;;;;4.75;3.30;;;;;;;;;;1815836;77;21907;-80
2022/05/02 11:31:23;;;;;;;4.80;3.15;;;;;;;;;;1802760;78;21230;-79
2022/05/02 11:33:58;;;;;;;6.83;3.67;;;;;;;;;;1790176;77;21122;-79
2022/05/02 11:36:34;;;;;;;5.40;3.52;;;;;;;;;;1814772;77;21599;-80
2022/05/02 11:39:08;;;;;;;4.58;3.65;;;;;;;;;;1805230;78;21155;-80
2022/05/02 11:41:44;;;;;;;6.03;4.30;;;;;;;;;;1809311;77;21196;-80
2022/05/02 11:44:20;;;;;;;5.97;3.70;;;;;;;;;;1819811;77;21165;-80
2022/05/02 11:46:55;;;;;;;5.20;3.67;;;;;;;;;;1795671;78;21171;-80
2022/05/02 11:49:30;;;;;;;7.85;4.58;;;;;;;;;;1811822;77;21154;-79
2022/05/02 11:52:06;;;;;;;7.37;4.10;;;;;;;;;;1800130;77;21167;-80
2022/05/02 11:54:40;;;;;;;5.85;4.47;;;;;;;;;;1805960;77;21241;-81
2022/05/02 11:57:19;;;;;;;9.70;4.67;;;;;;;;;;1792697;78;21145;-79
2022/05/02 11:59:57;;;;;;;6.70;4.53;;;;;;;;;;1793539;78;21606;-80
2022/05/02 12:02:35;;;;;;;7.30;4.70;;;;;;;;;;1795194;77;21120;-80
2022/05/02 12:05:08;;;;;;;6.40;4.40;;;;;;;;;;1802405;77;21218;-81
2022/05/02 12:07:41;;;;;;;6.47;4.35;;;;;;;;;;1790004;78;21139;-80
2022/05/02 12:10:16;;;;;;;5.97;4.62;;;;;;;;;;1811108;78;21223;-80
2022/05/02 12:12:51;;;;;;;6.72;4.30;;;;;;;;;;1778225;80;21129;-81
2022/05/02 12:15:25;;;;;;;6.83;4.65;;;;;;;;;;1834492;77;21177;-79
2022/05/02 12:18:01;;;;;;;7.30;4.97;;;;;;;;;;1810896;76;21157;-80
2022/05/02 12:20:35;;;;;;;8.67;5.07;;;;;;;;;;1830915;77;21161;-79
2022/05/02 12:23:10;;;;;;;6.75;4.78;;;;;;;;;;1771381;78;21190;-80
2022/05/02 12:25:45;;;;;;;7.62;5.53;;;;;;;;;;1805862;76;21285;-79
2022/05/02 12:28:19;;;;;;;7.28;5.47;;;;;;;;;;1780709;79;21303;-80
2022/05/02 12:30:53;;;;;;;10.78;5.60;;;;;;;;;;1803395;77;21286;-79
2022/05/02 12:33:30;;;;;;;8.55;5.62;;;;;;;;;;1780302;78;21187;-80
2022/05/02 12:36:06;;;;;;;8.40;5.03;;;;;;;;;;1800152;77;21170;-81
2022/05/02 12:38:43;;;;;;;9.98;5.72;;;;;;;;;;1807642;77;21142;-80
2022/05/02 12:41:17;;;;;;;;;;;;;;;;;;1797341;78;21240;-81
2022/05/02 12:43:52;;;;;;;7.25;4.75;;;;;;;;;;1805461;78;20203;-80
2022/05/02 12:46:25;;;;;;;7.72;5.67;;;;;;;;;;1763556;78;21166;-81
2022/05/02 12:48:59;;;;;;;6.22;4.97;;;;;;;;;;1789176;78;21130;-81
2022/05/02 12:51:32;;;;;;;6.17;4.70;;;;;;;;;;1763291;80;21077;-82
2022/05/02 12:54:12;;;;;;;8.03;4.90;;;;;;;;;;1800221;77;21233;-81
2022/05/02 12:56:38;;;;;;;9.20;4.67;;;;;;;;;;1756600;80;21638;-81
2022/05/02 13:01:43;;;;;;;5.55;4.30;;;;;;;;;;1790563;77;21216;-81
2022/05/02 13:04:16;;;;;;;7.80;4.50;;;;;;;;;;1802995;77;21217;-80
2022/05/02 13:06:49;;;;;;;7.10;4.10;;;;;;;;;;1803644;77;21212;-80
2022/05/02 13:09:21;;;;;;;5.10;3.98;;;;;;;;;;1781917;78;21205;-80
2022/05/02 13:11:54;;;;;;;7.67;4.33;;;;;;;;;;1822044;77;21187;-81
2022/05/02 13:14:26;;;;;;;6.25;4.60;;;;;;;;;;1755226;80;21156;-80
2022/05/02 13:16:58;;;;;;;8.90;4.30;;;;;;;;;;1775988;78;21694;-81
2022/05/02 13:19:31;;;;;;;5.90;4.30;;;;;;;;;;1811006;76;21105;-79
2022/05/02 13:22:02;;;;;;;8.25;4.53;;;;;;;;;;1792490;77;21171;-80
2022/05/02 13:24:37;;;;;;;6.55;4.37;;;;;;;;;;1832153;76;21236;-80
2022/05/02 13:27:08;;;;;;;7.80;4.37;;;;;;;;;;1829798;76;21193;-79
2022/05/02 13:29:40;;;;;;;6.08;4.20;;;;;;;;;;1778659;78;21201;-80
2022/05/02 13:32:13;;;;;;;6.90;4.60;;;;;;;;;;1748718;80;21267;-79
2022/05/02 13:34:49;;;;;;;8.35;4.87;;;;;;;;;;1816275;77;21111;-80
2022/05/02 13:37:19;;;;;;;7.08;4.30;;;;;;;;;;1803078;77;21085;-80
2022/05/02 13:39:54;;;;;;;6.20;3.98;;;;;;;;;;1809617;77;21172;-80
2022/05/02 13:42:27;;;;;;;6.75;4.05;;;;;;;;;;1764406;78;21151;-80
2022/05/02 13:44:59;;;;;;;5.70;4.08;;;;;;;;;;1754887;79;21154;-80
2022/05/02 13:47:32;;;;;;;6.72;4.10;;;;;;;;;;1825861;77;21176;-80
2022/05/02 13:50:10;;;;;;;7.42;4.30;;;;;;;;;;1778306;78;21182;-81
2022/05/02 13:52:38;;;;;;;5.72;3.92;;;;;;;;;;1795571;77;21192;-80
2022/05/02 13:55:13;;;;;;;7.58;3.90;;;;;;;;;;1799856;76;21621;-80
2022/05/02 13:57:49;;;;;;;6.75;3.60;;;;;;;;;;1791773;77;21615;-80
2022/05/02 14:02:57;;;;;;;8.25;4.17;;;;;;;;;;1788489;78;21302;-80
2022/05/02 14:05:32;;;;;;;6.08;3.75;;;;;;;;;;1747972;80;21304;-80
2022/05/02 14:08:07;;;;;;;7.33;4.00;;;;;;;;;;1807409;77;21213;-78
2022/05/02 14:10:36;;;;;;;7.17;4.15;;;;;;;;;;1806319;77;21264;-80
2022/05/02 14:13:09;;;;;;;4.50;3.47;;;;;;;;;;1802043;77;21200;-80
2022/05/02 14:15:41;;;;;;;6.10;3.85;;;;;;;;;;1769708;78;21197;-81
2022/05/02 14:18:17;;;;;;;5.47;4.10;;;;;;;;;;1760045;80;21653;-81
2022/05/02 14:20:46;;;;;;;5.75;3.40;;;;;;;;;;1785971;78;21220;-82
2022/05/02 14:23:18;;;;;;;6.33;3.67;;;;;;;;;;1785402;78;21110;-80
2022/05/02 14:25:49;;;;;;;6.97;3.60;;;;;;;;;;1762571;80;21296;-80
2022/05/02 14:28:22;;;;;;;7.65;3.90;;;;;;;;;;1796255;78;21737;-81
2022/05/02 14:30:55;;;;;;;5.53;3.72;;;;;;;;;;1801262;78;21177;-79
2022/05/02 14:33:28;;;;;;;5.50;4.00;;;;;;;;;;1799553;78;21171;-81
2022/05/02 14:36:03;;;;;;;7.45;4.33;;;;;;;;;;1797898;78;21203;-81
2022/05/02 14:38:35;;;;;;;6.53;4.20;;;;;;;;;;1806109;78;21653;-81
2022/05/02 14:41:09;;;;;;;7.40;4.50;;;;;;;;;;1808476;78;21234;-81
2022/05/02 14:43:42;;;;;;;7.78;4.00;;;;;;;;;;1795158;78;21103;-79
2022/05/02 14:46:20;;;;;;;6.50;3.85;;;;;;;;;;1792647;78;21138;-77
2022/05/02 14:48:54;;;;;;;7.20;4.03;;;;;;;;;;1830095;77;21177;-80
2022/05/02 14:51:30;;;;;;;7.90;4.20;;;;;;;;;;1824589;77;21120;-80
2022/05/02 14:54:02;;;;;;;6.53;4.15;;;;;;;;;;1805910;77;21272;-80
2022/05/02 14:56:37;;;;;;;7.70;4.65;;;;;;;;;;1801634;78;21418;-79
2022/05/02 14:59:08;;;;;;;6.37;3.83;;;;;;;;;;1807865;78;21307;-80
2022/05/02 15:01:44;;;;;;;7.20;4.78;;;;;;;;;;1811904;77;21182;-80
2022/05/02 15:04:15;;;;;;;7.22;4.30;;;;;;;;;;1753035;78;21274;-80
2022/05/02 15:06:51;;;;;;;7.55;4.12;;;;;;;;;;1801572;77;21578;-79
2022/05/02 15:09:23;;;;;;;8.25;4.17;;;;;;;;;;1806638;77;21159;-80
2022/05/02 15:11:53;;;;;;;8.05;4.40;;;;;;;;;;1816210;77;21208;-80
2022/05/02 15:14:24;;;;;;;8.25;4.78;;;;;;;;;;1780037;79;21193;-80
2022/05/02 15:16:56;;;;;;;7.97;4.03;;;;;;;;;;1753552;80;21249;-81
2022/05/02 15:21:59;;;;;;;7.75;4.40;;;;;;;;;;1758608;80;21124;-80
2022/05/02 15:24:30;;;;;;;7.00;3.80;;;;;;;;;;1796033;77;21727;-80
2022/05/02 15:27:00;;;;;;;9.75;4.10;;;;;;;;;;1797763;78;21107;-81
2022/05/02 15:37:16;;;;;;;8.70;4.45;;;;;;;;;;1809921;77;21117;-80
2022/05/02 15:39:47;;;;;;;10.35;4.58;;;;;;;;;;1773798;78;21710;-80
2022/05/02 15:42:17;;;;;;;6.05;4.22;;;;;;;;;;1816873;77;21208;-79